Data for 03/06/2006

Time Sea-Level Adjusted Pressure Absolute Pressure Temperature Relative Humidity Dew Point   
(mb) (inHg) (mb) (inHg) (C) (F) (%) (C) (F)
00:05 1017 30.03 846 24.98 1.6 34.8 47 -8.6 16.5
00:10 1017 30.03 846 24.98 1.6 34.9 47 -8.5 16.8
00:15 1017 30.03 846 24.98 1.4 34.5 47 -8.7 16.4
00:20 1017 30.03 846 24.98 1.5 34.7 48 -8.4 16.9
00:25 1017 30.03 846 24.98 1.3 34.4 48 -8.4 16.8
00:30 1017 30.03 846 24.98 1.2 34.2 49 -8.4 16.9
00:35 1017 30.03 846 24.98 1.1 34.1 50 -8.1 17.4
00:40 1017 30.03 846 24.98 0.9 33.6 50 -8.5 16.8
00:45 1017 30.03 846 24.98 1.2 34.2 48 -8.6 16.5
00:50 1017 30.03 846 24.98 1.2 34.1 48 -8.7 16.3
00:55 1017 30.03 846 24.98 1.1 34.1 48 -8.7 16.4
01:00 1017 30.03 846 24.98 1.3 34.3 48 -8.7 16.4
01:05 1017 30.03 846 24.98 1.1 34 49 -8.6 16.5
01:10 1017 30.03 846 24.98 1.2 34.2 47 -8.9 16
01:15 1017 30.03 846 24.98 1.5 34.7 47 -8.8 16.2
01:20 1017 30.03 846 24.98 1.6 34.9 46 -8.8 16.2
01:25 1017 30.03 846 24.98 1.6 34.9 46 -8.8 16.2
01:30 1017 30.03 846 24.98 1.7 35 46 -8.6 16.5
01:35 1017 30.03 846 24.98 1.7 35.1 45 -8.9 16
01:40 1017 30.03 846 24.98 2.1 35.8 44 -8.9 16.1
01:45 1017 30.03 846 24.98 2.3 36.1 44 -8.8 16.2
01:50 1017 30.03 846 24.98 2.3 36.1 44 -8.6 16.5
01:55 1017 30.03 846 24.98 2.1 35.8 45 -8.6 16.5
02:00 1017 30.03 846 24.98 1.9 35.5 45 -8.7 16.3
02:05 1017 30.03 846 24.98 2 35.7 45 -8.8 16.2
02:10 1017 30.03 846 24.98 1.9 35.5 46 -8.6 16.6
02:15 1017 30.03 846 24.98 1.5 34.8 49 -8 17.6
02:20 1017 30.03 846 24.98 1.2 34.2 49 -8.2 17.2
02:25 1017 30.03 846 24.98 1.4 34.5 48 -8.4 16.8
02:30 1017 30.03 846 24.98 1.7 35.1 47 -8.5 16.7
02:35 1017 30.03 846 24.98 2.1 35.7 45 -8.7 16.4
02:40 1016 30 846 24.98 2.2 35.9 45 -8.7 16.4
02:45 1016 30 846 24.98 2.4 36.4 44 -8.6 16.6
02:50 1016 30 846 24.98 2.1 35.8 47 -8.1 17.4
02:55 1016 30 846 24.98 1.8 35.2 48 -8.1 17.4
03:00 1016 30 846 24.98 1.3 34.4 51 -7.7 18.1
03:05 1016 30 846 24.98 1.3 34.3 49 -8.2 17.2
03:10 1016 30 846 24.98 1.2 34.2 50 -8 17.7
03:15 1016 30 846 24.98 1.5 34.8 48 -8.4 16.9
03:20 1016 30 845 24.95 1.7 35 50 -7.8 18
03:25 1016 30 845 24.95 1.3 34.3 50 -8 17.6
03:30 1016 30 845 24.95 1.4 34.6 48 -8.5 16.8
03:35 1016 30 845 24.95 1.9 35.3 47 -8.4 16.9
03:40 1016 30 845 24.95 2.1 35.8 45 -8.7 16.3
03:45 1016 30 845 24.95 2 35.7 46 -8.3 17.1
03:50 1016 30 845 24.95 1.8 35.3 47 -8.3 17
03:55 1016 30 845 24.95 1.8 35.3 47 -8.3 17.1
04:00 1016 30 845 24.95 1.7 35 48 -8.3 17.1
04:05 1016 30 845 24.95 1.5 34.8 50 -7.8 17.9
04:10 1016 30 845 24.95 1.3 34.4 50 -8.1 17.5
04:15 1016 30 845 24.95 1.3 34.3 50 -8 17.7
04:20 1016 30 845 24.95 1.2 34.2 50 -8 17.6
04:25 1016 30 845 24.95 1.4 34.6 49 -8.3 17.1
04:30 1016 30 845 24.95 1.6 34.9 49 -8 17.6
04:35 1016 30 845 24.95 1.5 34.7 48 -8.4 16.9
04:40 1016 30 845 24.95 1.8 35.3 46 -8.5 16.7
04:45 1016 30 845 24.95 2 35.6 46 -8.5 16.8
04:50 1016 30 845 24.95 2 35.5 46 -8.4 16.8
04:55 1016 30 845 24.95 2 35.7 47 -8.1 17.4
05:00 1016 30 845 24.95 1.6 34.9 49 -8 17.5
05:05 1016 30 845 24.95 1.4 34.5 50 -8.1 17.5
05:10 1016 30 845 24.95 1.5 34.7 49 -7.9 17.7
05:15 1016 30 845 24.95 1.3 34.4 48 -8.5 16.7
05:20 1016 30 845 24.95 1.7 35.1 47 -8.3 17
05:25 1016 30 845 24.95 1.8 35.2 46 -8.7 16.3
05:30 1016 30 845 24.95 1.8 35.3 47 -8.4 17
05:35 1016 30 845 24.95 1.6 34.8 48 -8.2 17.2
05:40 1016 30 845 24.95 1.6 34.8 49 -8 17.6
05:45 1016 30 845 24.95 1.4 34.6 48 -8.3 17
05:50 1015 29.97 845 24.95 1.2 34.1 49 -8.3 17
05:55 1015 29.97 845 24.95 1.6 34.8 48 -8.2 17.3
06:00 1015 29.97 845 24.95 1.6 34.9 49 -8 17.5
06:05 1015 29.97 844 24.92 1.5 34.7 49 -8.2 17.3
06:10 1015 29.97 844 24.92 1.4 34.5 48 -8.4 16.9
06:15 1015 29.97 844 24.92 1.5 34.7 47 -8.5 16.7
06:20 1015 29.97 844 24.92 1.8 35.2 46 -8.7 16.3
06:25 1015 29.97 844 24.92 1.9 35.5 46 -8.5 16.7
06:30 1015 29.97 844 24.92 1.9 35.5 45 -8.7 16.3
06:35 1015 29.97 844 24.92 2.1 35.8 45 -8.7 16.3
06:40 1015 29.97 844 24.92 2.3 36.1 45 -8.6 16.6
06:45 1015 29.97 844 24.92 2.3 36.1 44 -8.8 16.2
06:50 1015 29.97 844 24.92 2.2 36 45 -8.6 16.5
06:55 1015 29.97 844 24.92 2.1 35.8 45 -8.6 16.6
07:00 1015 29.97 844 24.92 2.3 36.1 44 -8.7 16.3
07:05 1015 29.97 844 24.92 2.3 36.1 46 -8.1 17.4
07:10 1015 29.97 844 24.92 2.1 35.8 45 -8.5 16.8
07:15 1015 29.97 844 24.92 2.1 35.8 46 -8.2 17.2
07:20 1015 29.97 844 24.92 2 35.6 47 -8.2 17.3
07:25 1015 29.97 844 24.92 2.1 35.9 46 -8.2 17.3
07:30 1015 29.97 844 24.92 1.9 35.5 48 -7.9 17.8
07:35 1015 29.97 844 24.92 1.6 35 49 -8 17.6
07:40 1015 29.97 844 24.92 1.6 34.9 48 -8.2 17.2
07:45 1015 29.97 844 24.92 2 35.5 47 -8.2 17.2
07:50 1015 29.97 844 24.92 2.1 35.8 46 -8.3 17.1
07:55 1015 29.97 844 24.92 2.1 35.8 47 -8 17.5
08:00 1015 29.97 844 24.92 2.2 35.9 45 -8.4 16.8
08:05 1015 29.97 844 24.92 2.5 36.6 44 -8.5 16.8
08:10 1015 29.97 844 24.92 2.7 36.9 47 -7.5 18.6
08:15 1014 29.94 844 24.92 2.8 37 46 -7.9 17.8
08:20 1014 29.94 844 24.92 2.9 37.2 45 -8 17.6
08:25 1014 29.94 844 24.92 2.9 37.2 45 -7.8 17.9
08:30 1014 29.94 844 24.92 2.9 37.3 45 -7.8 17.9
08:35 1014 29.94 844 24.92 3 37.4 46 -7.6 18.2
08:40 1014 29.94 844 24.92 3.1 37.5 44 -8 17.6
08:45 1014 29.94 843 24.89 3.3 38 43 -8 17.7
08:50 1014 29.94 843 24.89 3.3 37.9 43 -8 17.6
08:55 1014 29.94 843 24.89 3.3 37.9 44 -7.9 17.7
09:00 1014 29.94 843 24.89 3.2 37.8 44 -7.8 18
09:05 1014 29.94 843 24.89 3.4 38.1 44 -7.9 17.8
09:10 1014 29.94 843 24.89 3.7 38.7 42 -8 17.6
09:15 1014 29.94 843 24.89 3.8 38.9 40 -8.5 16.7
09:20 1014 29.94 843 24.89 4.1 39.4 41 -8.1 17.4
09:25 1014 29.94 843 24.89 4.3 39.7 41 -8 17.7
09:30 1014 29.94 843 24.89 4.4 39.9 40 -8 17.7
09:35 1014 29.94 843 24.89 4.7 40.4 40 -7.8 17.9
09:40 1014 29.94 843 24.89 5.2 41.3 38 -8 17.7
09:45 1014 29.94 843 24.89 5.6 42.1 38 -7.6 18.4
09:50 1014 29.94 843 24.89 5.8 42.5 37 -7.9 17.8
09:55 1014 29.94 843 24.89 6.1 43 37 -7.3 18.8
10:00 1014 29.94 843 24.89 6.1 43 37 -7.7 18.2
10:05 1014 29.94 843 24.89 6.6 43.9 38 -6.9 19.6
10:10 1014 29.94 843 24.89 6.8 44.2 37 -6.7 19.9
10:15 1014 29.94 843 24.89 7 44.6 35 -7.3 18.9
10:20 1013 29.91 843 24.89 7.3 45.1 35 -7.3 18.8
10:25 1013 29.91 843 24.89 7.4 45.3 34 -7.6 18.4
10:30 1013 29.91 843 24.89 7.4 45.4 33 -7.8 18
10:35 1013 29.91 842 24.86 6.8 44.3 34 -7.9 17.9
10:40 1013 29.91 842 24.86 7.3 45.1 34 -7.6 18.4
10:45 1013 29.91 842 24.86 6.9 44.5 34 -7.9 17.8
10:50 1013 29.91 842 24.86 7.1 44.8 35 -7.5 18.6
10:55 1013 29.91 842 24.86 7.3 45.1 34 -7.5 18.4
11:00 1013 29.91 842 24.86 7.8 46 35 -6.9 19.6
11:05 1013 29.91 842 24.86 7.2 45 35 -7.1 19.1
11:10 1013 29.91 842 24.86 8.1 46.5 34 -6.7 19.9
11:15 1013 29.91 842 24.86 8.2 46.7 34 -6.9 19.7
11:20 1013 29.91 842 24.86 8.1 46.7 33 -7.1 19.2
11:25 1013 29.91 842 24.86 7.8 46 33 -7.4 18.7
11:30 1013 29.91 842 24.86 7.7 45.9 38 -5.6 21.9
11:35 1013 29.91 842 24.86 7.7 45.8 37 -6.1 21.1
11:40 1013 29.91 842 24.86 7.9 46.3 36 -6.1 21
11:45 1012 29.88 842 24.86 7.8 46 40 -4.9 23.2
11:50 1013 29.91 842 24.86 7.7 45.8 39 -5.3 22.5
11:55 1012 29.88 842 24.86 7 44.5 41 -5.3 22.4
12:00 1012 29.88 842 24.86 6.8 44.2 43 -5 22.9
12:05 1012 29.88 841 24.83 7 44.5 41 -5.3 22.5
12:10 1012 29.88 841 24.83 6.8 44.2 42 -5.2 22.6
12:15 1012 29.88 841 24.83 6.8 44.3 40 -5.8 21.6
12:20 1012 29.88 841 24.83 7.2 45 39 -6 21.2
12:25 1012 29.88 841 24.83 7.5 45.5 39 -5.7 21.7
12:30 1012 29.88 841 24.83 7.5 45.6 38 -5.9 21.4
12:35 1012 29.88 841 24.83 7.9 46.1 38 -5.6 22
12:40 1012 29.88 841 24.83 8.2 46.7 36 -6.1 21.1
12:45 1012 29.88 841 24.83 8.5 47.4 35 -6.2 20.9
12:50 1011 29.85 841 24.83 8.6 47.6 32 -7.2 19
12:55 1011 29.85 841 24.83 9.2 48.5 34 -6 21.3
13:00 1011 29.85 840 24.81 10.1 50.2 21 -11.1 11.9
13:05 1011 29.85 840 24.81 11.6 52.8 23 -8.7 16.3
13:10 1011 29.85 840 24.81 11.2 52.1 31 -5.5 22
13:15 1011 29.85 840 24.81 10.2 50.3 29 -7 19.5
13:20 1011 29.85 840 24.81 10.6 51 22 -10 14
13:25 1011 29.85 840 24.81 11.2 52.1 22 -9.9 14.2
13:30 1011 29.85 840 24.81 11.3 52.3 29 -5.9 21.4
13:35 1011 29.85 840 24.81 10.4 50.7 26 -8.3 17
13:40 1011 29.85 840 24.81 10.8 51.4 27 -7.2 19
13:45 1011 29.85 840 24.81 11.2 52.1 24 -8.8 16.1
13:50 1011 29.85 840 24.81 11.4 52.5 24 -8.5 16.7
13:55 1011 29.85 840 24.81 11.9 53.4 24 -8 17.6
14:00 1011 29.85 840 24.81 12 53.5 24 -8.1 17.4
14:05 1010 29.83 840 24.81 12 53.5 24 -8.2 17.3
14:10 1010 29.83 840 24.81 11.7 53.1 25 -7.6 18.3
14:15 1010 29.83 839 24.78 12 53.6 24 -7.7 18.1
14:20 1010 29.83 839 24.78 12 53.6 23 -8.7 16.3
14:25 1010 29.83 839 24.78 11.8 53.2 23 -8.4 16.8
14:30 1010 29.83 839 24.78 11.8 53.3 24 -8.2 17.3
14:35 1010 29.83 839 24.78 12.3 54.1 24 -8 17.7
14:40 1010 29.83 839 24.78 11.7 53 28 -6.3 20.6
14:45 1010 29.83 839 24.78 11.1 52 29 -6.3 20.7
14:50 1010 29.83 839 24.78 10.4 50.8 32 -5.5 22.2
14:55 1010 29.83 839 24.78 10.2 50.3 30 -6.5 20.3
15:00 1010 29.83 839 24.78 10.4 50.6 31 -6 21.2
15:05 1010 29.83 839 24.78 10.7 51.2 29 -6.7 19.9
15:10 1009 29.8 839 24.78 10.6 51.1 30 -6.1 21.1
15:15 1009 29.8 839 24.78 10.2 50.4 33 -5.2 22.7
15:20 1009 29.8 838 24.75 10.2 50.4 35 -4.4 24
15:25 1009 29.8 839 24.78 9.7 49.5 35 -4.9 23.2
15:30 1009 29.8 839 24.78 9.8 49.6 35 -5.1 22.8
15:35 1009 29.8 839 24.78 9.7 49.4 37 -4.3 24.2
15:40 1009 29.8 839 24.78 9.7 49.4 35 -5 23
15:45 1009 29.8 839 24.78 9.4 48.8 39 -3.9 24.9
15:50 1009 29.8 839 24.78 9.3 48.7 40 -3.6 25.6
15:55 1009 29.8 839 24.78 9.2 48.6 39 -4.2 24.5
16:00 1009 29.8 839 24.78 9.3 48.7 41 -3.3 26
16:05 1009 29.8 839 24.78 9.1 48.3 41 -3.6 25.5
16:10 1009 29.8 839 24.78 8.8 47.9 41 -3.8 25.1
16:15 1009 29.8 839 24.78 9 48.1 40 -3.9 25.1
16:20 1010 29.83 839 24.78 8.8 47.9 43 -3.1 26.3
16:25 1010 29.83 839 24.78 8.6 47.5 42 -3.6 25.5
16:30 1010 29.83 839 24.78 8.8 47.9 40 -4.1 24.7
16:35 1010 29.83 839 24.78 9.2 48.5 39 -4.2 24.4
16:40 1010 29.83 839 24.78 9.4 49 36 -4.8 23.4
16:45 1010 29.83 839 24.78 9.6 49.3 39 -3.5 25.6
16:50 1010 29.83 839 24.78 8.9 48 39 -4.2 24.5
16:55 1010 29.83 839 24.78 9 48.3 39 -4.1 24.7
17:00 1010 29.83 839 24.78 9.2 48.5 39 -4.1 24.6
17:05 1010 29.83 839 24.78 9 48.2 41 -3.5 25.7
17:10 1010 29.83 839 24.78 9 48.2 38 -4.4 24.1
17:15 1010 29.83 839 24.78 8.9 47.9 42 -3.4 25.8
17:20 1010 29.83 839 24.78 8.8 47.9 41 -3.7 25.4
17:25 1010 29.83 839 24.78 8.7 47.7 43 -3.2 26.3
17:30 1010 29.83 839 24.78 8.6 47.4 44 -3.1 26.5
17:35 1010 29.83 839 24.78 8.4 47.2 43 -3.3 26.1
17:40 1010 29.83 839 24.78 8 46.3 45 -3.2 26.3
17:45 1010 29.83 839 24.78 7.9 46.1 47 -2.8 26.9
17:50 1010 29.83 839 24.78 7.6 45.6 49 -2.4 27.7
17:55 1010 29.83 839 24.78 7.2 44.9 50 -2.5 27.5
18:00 1010 29.83 839 24.78 7.5 45.5 50 -2.3 27.8
18:05 1010 29.83 839 24.78 7.5 45.5 48 -2.7 27.1
18:10 1010 29.83 839 24.78 7.6 45.6 49 -2.4 27.7
18:15 1010 29.83 839 24.78 7.4 45.4 50 -2.2 28.1
18:20 1010 29.83 839 24.78 7.4 45.3 50 -2.2 28
18:25 1010 29.83 839 24.78 7.3 45.2 51 -2 28.4
18:30 1010 29.83 839 24.78 7.2 44.9 52 -2 28.5
18:35 1010 29.83 839 24.78 7.1 44.8 52 -2 28.4
18:40 1010 29.83 840 24.81 7.1 44.8 52 -2 28.4
18:45 1010 29.83 839 24.78 7.2 45 52 -1.9 28.6
18:50 1010 29.83 839 24.78 7.3 45.1 52 -1.8 28.7
18:55 1010 29.83 839 24.78 7.3 45.1 53 -1.8 28.8
19:00 1010 29.83 839 24.78 7.3 45.2 51 -2 28.3
19:05 1010 29.83 839 24.78 7.4 45.3 51 -2 28.4
19:10 1010 29.83 839 24.78 7.3 45.1 53 -1.5 29.2
19:15 1010 29.83 839 24.78 6.7 44.1 55 -1.6 29.2
19:20 1010 29.83 839 24.78 6.4 43.4 57 -1.4 29.5
19:25 1010 29.83 839 24.78 6.3 43.4 58 -1.4 29.5
19:30 1010 29.83 839 24.78 6.2 43.2 58 -1.3 29.6
19:35 1010 29.83 839 24.78 6.3 43.3 58 -1.4 29.5
19:40 1010 29.83 839 24.78 6.4 43.6 57 -1.5 29.3
19:45 1010 29.83 839 24.78 6.7 44 56 -1.5 29.4
19:50 1010 29.83 839 24.78 6.8 44.2 57 -1.2 29.8
19:55 1010 29.83 839 24.78 6.5 43.8 58 -1.1 29.9
20:00 1010 29.83 839 24.78 6.5 43.6 58 -1.1 29.9
20:05 1010 29.83 839 24.78 6.5 43.6 58 -1.1 29.9
20:10 1010 29.83 839 24.78 6.4 43.5 58 -1.2 29.9
20:15 1010 29.83 839 24.78 6.4 43.4 59 -1.1 30
20:20 1010 29.83 839 24.78 6.4 43.5 58 -1.2 29.9
20:25 1010 29.83 839 24.78 6.4 43.5 58 -1.2 29.8
20:30 1010 29.83 839 24.78 6.4 43.5 58 -1.2 29.9
20:35 1010 29.83 839 24.78 5.8 42.5 62 -0.8 30.5
20:40 1010 29.83 839 24.78 5.4 41.7 63 -1.1 30
20:45 1010 29.83 839 24.78 5.5 41.9 62 -1.1 30
20:50 1010 29.83 839 24.78 5.6 42.1 62 -1 30.2
20:55 1010 29.83 839 24.78 5.5 41.8 63 -1 30.3
21:00 1010 29.83 839 24.78 5.3 41.5 64 -1 30.2
21:05 1010 29.83 839 24.78 5.2 41.3 64 -1.1 30
21:10 1010 29.83 839 24.78 5.2 41.3 64 -1.1 30.1
21:15 1010 29.83 839 24.78 5 41 64 -1.2 29.9
21:20 1009 29.8 839 24.78 4.6 40.4 66 -1.1 30
21:25 1009 29.8 839 24.78 4.4 40 67 -1.2 29.8
21:30 1010 29.83 839 24.78 4.7 40.4 64 -1.6 29.1
21:35 1009 29.8 839 24.78 4.9 40.9 63 -1.5 29.4
21:40 1010 29.83 839 24.78 5.4 41.8 59 -1.9 28.6
21:45 1010 29.83 839 24.78 5.8 42.4 61 -1.1 29.9
21:50 1010 29.83 839 24.78 5 41.1 65 -1.1 30.1
21:55 1009 29.8 839 24.78 4.6 40.3 66 -1.2 29.9
22:00 1009 29.8 839 24.78 4.7 40.4 64 -1.4 29.4
22:05 1009 29.8 839 24.78 4.9 40.8 63 -1.5 29.4
22:10 1009 29.8 839 24.78 5.1 41.2 64 -1.2 29.8
22:15 1009 29.8 839 24.78 5.1 41.2 64 -1.2 29.8
22:20 1009 29.8 839 24.78 5.5 41.9 60 -1.6 29.1
22:25 1010 29.83 839 24.78 5.7 42.2 60 -1.4 29.5
22:30 1009 29.8 839 24.78 5.6 42.2 60 -1.5 29.2
22:35 1009 29.8 839 24.78 5.4 41.7 62 -1.3 29.6
22:40 1009 29.8 839 24.78 5.2 41.4 62 -1.5 29.4
22:45 1009 29.8 839 24.78 5.1 41.2 62 -1.5 29.4
22:50 1009 29.8 839 24.78 5.1 41.1 61 -1.7 28.9
22:55 1009 29.8 839 24.78 5 41 62 -1.7 29
23:00 1009 29.8 839 24.78 5.1 41.2 61 -1.8 28.7
23:05 1009 29.8 839 24.78 5.3 41.5 60 -1.8 28.8
23:10 1010 29.83 839 24.78 5.3 41.6 60 -1.7 28.9
23:15 1010 29.83 839 24.78 5.2 41.3 61 -1.7 28.9
23:20 1009 29.8 839 24.78 4.8 40.7 63 -1.5 29.3
23:25 1009 29.8 839 24.78 4.4 40 65 -1.6 29.1
23:30 1009 29.8 839 24.78 4.4 40 64 -1.8 28.8
23:35 1009 29.8 839 24.78 4.7 40.5 63 -1.8 28.7
23:40 1009 29.8 839 24.78 5 41 62 -1.8 28.8
23:45 1009 29.8 839 24.78 4.9 40.8 62 -1.7 28.9
23:50 1009 29.8 839 24.78 5 40.9 62 -1.6 29
23:55 1009 29.8 838 24.75 4.8 40.6 63 -1.7 28.9
24:00 1009 29.8 838 24.75 5 41 62 -1.8 28.8